createdAt,value
2019-04-06T00:01:13.142Z,57.47
2019-04-06T00:06:37.533Z,54.53
2019-04-06T00:12:01.238Z,53.13
2019-04-06T00:17:26.205Z,50.60
2019-04-06T00:22:50.418Z,47.53
2019-04-06T00:28:14.228Z,47.50
2019-04-06T00:33:38.608Z,46.50
2019-04-06T00:39:02.485Z,41.50
2019-04-06T00:44:28.233Z,43.73
2019-04-06T00:49:53.763Z,42.80
2019-04-06T00:55:18.097Z,38.20
2019-04-06T01:00:41.950Z,40.00
2019-04-06T01:06:06.470Z,40.57
2019-04-06T01:11:30.181Z,36.53
2019-04-06T01:16:54.675Z,41.90
2019-04-06T01:22:19.136Z,34.53
2019-04-06T01:27:42.737Z,39.40
2019-04-06T01:33:06.463Z,38.23
2019-04-06T01:38:30.594Z,35.47
2019-04-06T01:43:54.415Z,35.00
2019-04-06T01:49:17.811Z,36.33
2019-04-06T01:54:41.420Z,38.23
2019-04-06T02:00:07.946Z,45.77
2019-04-06T02:05:32.198Z,43.87
2019-04-06T02:10:56.424Z,42.53
2019-04-06T02:16:20.919Z,43.90
2019-04-06T02:21:45.313Z,47.53
2019-04-06T02:27:09.535Z,41.97
2019-04-06T02:32:52.239Z,46.00
2019-04-06T02:38:27.710Z,42.23
2019-04-06T02:43:52.184Z,50.27
2019-04-06T02:49:16.541Z,46.20
2019-04-06T02:54:39.957Z,43.40
2019-04-06T03:00:04.351Z,44.50
2019-04-06T03:05:28.522Z,44.10
2019-04-06T03:10:52.752Z,45.47
2019-04-06T03:16:18.188Z,42.87
2019-04-06T03:21:41.639Z,45.60
2019-04-06T03:27:05.187Z,47.73
2019-04-06T03:32:29.514Z,47.47
2019-04-06T03:37:53.702Z,46.83
2019-04-06T03:43:18.141Z,44.53
2019-04-06T03:48:42.222Z,42.47
2019-04-06T03:54:06.817Z,42.43
2019-04-06T03:59:30.878Z,44.30
2019-04-06T04:04:55.063Z,46.00
2019-04-06T04:10:35.528Z,48.33
2019-04-06T04:15:58.895Z,46.20
2019-04-06T04:21:22.878Z,42.43
2019-04-06T04:26:47.105Z,38.73
2019-04-06T04:32:11.550Z,43.53
2019-04-06T04:37:35.787Z,39.10
2019-04-06T04:42:59.479Z,44.47
2019-04-06T04:48:23.522Z,37.57
2019-04-06T04:53:47.835Z,42.97
2019-04-06T04:59:11.723Z,41.10
2019-04-06T05:04:35.491Z,48.40
2019-04-06T05:09:59.967Z,41.83
2019-04-06T05:15:35.468Z,37.90
2019-04-06T05:20:59.322Z,36.70
2019-04-06T05:26:23.925Z,37.27
2019-04-06T05:31:47.300Z,44.43
2019-04-06T05:37:11.536Z,39.43
2019-04-06T05:42:36.150Z,36.60
2019-04-06T05:48:00.267Z,39.17
2019-04-06T05:53:24.584Z,39.80
2019-04-06T05:58:49.967Z,35.97
2019-04-06T06:04:13.866Z,36.87
2019-04-06T06:09:37.186Z,33.73
2019-04-06T06:15:01.266Z,36.70
2019-04-06T06:20:25.448Z,37.87
2019-04-06T06:25:49.755Z,36.40
2019-04-06T06:31:13.339Z,37.23
2019-04-06T06:36:36.990Z,36.47
2019-04-06T06:42:01.735Z,38.53
2019-04-06T06:47:26.267Z,39.37
2019-04-06T06:52:50.417Z,36.70
2019-04-06T06:58:24.836Z,40.05
2019-04-06T07:03:40.046Z,40.60
2019-04-06T07:09:06.678Z,39.33
2019-04-06T07:14:31.032Z,38.95
2019-04-06T07:19:54.794Z,39.80
2019-04-06T07:25:19.295Z,37.30
2019-04-06T07:30:42.669Z,39.35
2019-04-06T07:36:06.278Z,46.30
2019-04-06T07:41:29.710Z,44.25
2019-04-06T07:46:54.062Z,43.75
2019-04-06T07:52:18.064Z,39.83
2019-04-06T07:57:42.231Z,44.90
2019-04-06T08:03:06.153Z,42.17
2019-04-06T08:08:30.024Z,44.88
2019-04-06T08:13:53.915Z,38.58
2019-04-06T08:19:18.501Z,41.33
2019-04-06T08:24:42.609Z,40.92
2019-04-06T08:30:07.611Z,42.08
2019-04-06T08:35:31.163Z,41.70
2019-04-06T08:40:54.622Z,41.48
2019-04-06T08:46:18.396Z,40.45
2019-04-06T08:51:41.988Z,38.28
2019-04-06T08:57:06.108Z,39.70
2019-04-06T09:02:29.736Z,40.65
2019-04-06T09:07:53.974Z,38.17
2019-04-06T09:13:18.498Z,38.42
2019-04-06T09:18:43.898Z,45.95
2019-04-06T09:24:08.084Z,42.73
2019-04-06T09:29:32.285Z,38.35
2019-04-06T09:34:56.818Z,37.00
2019-04-06T09:40:20.749Z,34.80
2019-04-06T09:46:18.560Z,38.00
2019-04-06T09:51:59.447Z,35.43
2019-04-06T09:57:33.769Z,37.73
2019-04-06T10:03:15.685Z,35.55
2019-04-06T10:08:53.283Z,33.63
2019-04-06T10:14:25.687Z,32.63
2019-04-06T10:20:04.376Z,33.13
2019-04-06T10:25:53.692Z,30.02
2019-04-06T10:31:37.344Z,31.00
2019-04-06T10:37:20.385Z,29.30
2019-04-06T10:43:09.398Z,44.75
2019-04-06T10:48:53.179Z,31.20
2019-04-06T10:54:34.044Z,47.58
2019-04-06T11:00:16.172Z,32.53
2019-04-06T11:05:57.697Z,38.33
2019-04-06T11:11:42.158Z,29.75
2019-04-06T11:17:23.588Z,30.10
2019-04-06T11:23:05.498Z,49.67
2019-04-06T11:28:47.851Z,32.80
2019-04-06T11:34:30.621Z,34.30
2019-04-06T11:40:14.068Z,35.43
2019-04-06T11:45:56.739Z,38.98
2019-04-06T11:51:48.561Z,39.95
2019-04-06T11:57:18.358Z,35.03
2019-04-06T12:03:00.567Z,34.55
2019-04-06T12:08:36.009Z,28.50
2019-04-06T12:14:12.630Z,32.45
2019-04-06T12:19:48.423Z,28.27
2019-04-06T12:25:31.435Z,25.55
2019-04-06T12:31:16.950Z,32.28
2019-04-06T12:36:47.175Z,38.70
2019-04-06T12:42:28.577Z,32.28
2019-04-06T12:48:09.706Z,36.80
2019-04-06T12:53:54.743Z,28.40
2019-04-06T12:59:47.025Z,27.05
2019-04-06T13:05:21.164Z,26.55
2019-04-06T13:11:20.161Z,58.17
2019-04-06T13:17:03.432Z,22.93
2019-04-06T13:22:44.648Z,23.70
2019-04-06T13:28:34.433Z,25.02
2019-04-06T13:34:10.823Z,25.90
2019-04-06T13:39:45.073Z,27.58
2019-04-06T13:45:20.454Z,24.32
2019-04-06T13:50:53.767Z,28.40
2019-04-06T13:56:25.317Z,22.07
2019-04-06T14:02:02.013Z,26.97
2019-04-06T14:07:50.345Z,22.15
2019-04-06T14:13:39.197Z,22.30
2019-04-06T14:19:24.203Z,25.05
2019-04-06T14:25:13.853Z,23.00
2019-04-06T14:30:54.972Z,28.07
2019-04-06T14:36:41.729Z,22.20
2019-04-06T14:42:12.763Z,22.58
2019-04-06T14:47:45.061Z,27.00
2019-04-06T14:53:21.143Z,20.05
2019-04-06T14:59:07.445Z,24.60
2019-04-06T15:04:48.927Z,32.42
2019-04-06T15:10:22.569Z,26.93
2019-04-06T15:15:58.736Z,23.62
2019-04-06T15:21:30.979Z,21.27
2019-04-06T15:27:19.640Z,31.50
2019-04-06T15:32:56.011Z,24.82
2019-04-06T15:38:48.605Z,27.50
2019-04-06T15:44:30.186Z,20.62
2019-04-06T15:50:08.713Z,23.77
2019-04-06T15:55:40.091Z,27.20
2019-04-06T16:01:23.760Z,20.77
2019-04-06T16:07:07.338Z,17.77
2019-04-06T16:12:43.456Z,20.80
2019-04-06T16:18:28.971Z,22.52
2019-04-06T16:24:03.072Z,39.35
2019-04-06T16:29:36.946Z,23.65
2019-04-06T16:35:09.852Z,24.02
2019-04-06T16:41:10.502Z,26.35
2019-04-06T16:46:50.556Z,26.55
2019-04-06T16:52:41.383Z,29.40
2019-04-06T16:58:24.726Z,25.40
2019-04-06T17:03:58.901Z,23.40
2019-04-06T17:09:30.064Z,21.27
2019-04-06T17:15:06.356Z,28.65
2019-04-06T17:20:47.473Z,21.07
2019-04-06T17:26:33.748Z,27.42
2019-04-06T17:32:16.569Z,26.85
2019-04-06T17:38:04.969Z,27.98
2019-04-06T17:43:56.729Z,26.70
2019-04-06T17:49:29.278Z,29.00
2019-04-06T17:55:04.878Z,33.88
2019-04-06T18:00:39.465Z,30.80
2019-04-06T18:06:16.349Z,22.93
2019-04-06T18:11:48.063Z,27.52
2019-04-06T18:17:12.871Z,27.58
2019-04-06T18:22:37.867Z,27.32
2019-04-06T18:28:01.637Z,28.65
2019-04-06T18:33:26.100Z,30.37
2019-04-06T18:39:04.177Z,28.75
2019-04-06T18:44:29.056Z,31.57
2019-04-06T18:49:53.760Z,32.20
2019-04-06T18:55:18.242Z,35.88
2019-04-06T19:00:42.339Z,35.25
2019-04-06T19:06:07.133Z,26.20
2019-04-06T19:11:31.327Z,37.98
2019-04-06T19:16:55.956Z,27.67
2019-04-06T19:22:19.820Z,25.97
2019-04-06T19:27:43.673Z,25.07
2019-04-06T19:33:08.331Z,24.72
2019-04-06T19:38:32.544Z,27.83
2019-04-06T19:43:56.603Z,38.00
2019-04-06T19:49:21.160Z,29.10
2019-04-06T19:54:44.699Z,34.13
2019-04-06T20:00:09.743Z,35.40
2019-04-06T20:05:33.304Z,36.03
2019-04-06T20:10:57.643Z,25.37
2019-04-06T20:16:21.822Z,29.00
2019-04-06T20:21:45.510Z,22.37
2019-04-06T20:27:09.382Z,33.20
2019-04-06T20:32:32.893Z,26.80
2019-04-06T20:37:56.257Z,31.90
2019-04-06T20:43:19.813Z,28.57
2019-04-06T20:48:44.682Z,31.80
2019-04-06T20:54:09.194Z,25.03
2019-04-06T20:59:33.231Z,22.57
2019-04-06T21:04:57.812Z,28.83
2019-04-06T21:10:22.158Z,26.73
2019-04-06T21:15:46.365Z,29.47
2019-04-06T21:21:11.003Z,28.20
2019-04-06T21:26:34.483Z,29.30
2019-04-06T21:31:59.507Z,29.10
2019-04-06T21:37:25.452Z,27.93
2019-04-06T21:42:49.089Z,28.97
2019-04-06T21:48:13.517Z,30.87
2019-04-06T21:53:37.815Z,28.17
2019-04-06T21:59:01.627Z,33.83
2019-04-06T22:04:26.919Z,31.90
2019-04-06T22:09:51.597Z,30.67
2019-04-06T22:15:16.367Z,29.23
2019-04-06T22:20:42.050Z,26.47
2019-04-06T22:26:06.198Z,30.47
2019-04-06T22:31:30.555Z,29.20
2019-04-06T22:36:55.937Z,30.53
2019-04-06T22:42:19.670Z,33.67
2019-04-06T22:47:44.123Z,25.00
2019-04-06T22:53:08.746Z,27.57
2019-04-06T22:58:33.395Z,31.37
2019-04-06T23:04:15.191Z,27.00
2019-04-06T23:09:38.541Z,33.47
2019-04-06T23:15:02.048Z,33.03
2019-04-06T23:20:25.919Z,32.90
2019-04-06T23:25:50.233Z,30.17
2019-04-06T23:31:14.718Z,32.13
2019-04-06T23:36:38.123Z,34.87
2019-04-06T23:42:01.839Z,31.07
2019-04-06T23:47:25.625Z,29.23
2019-04-06T23:52:49.226Z,29.57
2019-04-06T23:58:14.065Z,26.97
